sensor_id;sensor_type;location;lat;lon;timestamp;temperature;humidity
11009;DHT22;5557;51.670;7.788;2023-07-28T00:00:53;17.00;99.90
11009;DHT22;5557;51.670;7.788;2023-07-28T00:03:20;17.00;99.90
11009;DHT22;5557;51.670;7.788;2023-07-28T00:05:47;17.00;99.90
11009;DHT22;5557;51.670;7.788;2023-07-28T00:08:14;17.00;99.90
11009;DHT22;5557;51.670;7.788;2023-07-28T00:10:41;17.00;99.90
11009;DHT22;5557;51.670;7.788;2023-07-28T00:13:09;16.90;99.90
11009;DHT22;5557;51.670;7.788;2023-07-28T00:15:36;17.00;99.90
11009;DHT22;5557;51.670;7.788;2023-07-28T00:18:03;16.90;99.90
11009;DHT22;5557;51.670;7.788;2023-07-28T00:20:30;16.90;99.90
11009;DHT22;5557;51.670;7.788;2023-07-28T00:22:57;16.90;99.90
11009;DHT22;5557;51.670;7.788;2023-07-28T00:25:24;16.90;99.90
11009;DHT22;5557;51.670;7.788;2023-07-28T00:27:51;16.90;99.90
11009;DHT22;5557;51.670;7.788;2023-07-28T00:30:18;16.90;99.90
11009;DHT22;5557;51.670;7.788;2023-07-28T00:32:49;16.90;99.90
11009;DHT22;5557;51.670;7.788;2023-07-28T00:35:17;16.90;99.90
11009;DHT22;5557;51.670;7.788;2023-07-28T00:37:44;16.90;99.90
11009;DHT22;5557;51.670;7.788;2023-07-28T00:40:11;16.90;99.90
11009;DHT22;5557;51.670;7.788;2023-07-28T00:42:39;16.90;99.90
11009;DHT22;5557;51.670;7.788;2023-07-28T00:45:06;16.90;99.90
11009;DHT22;5557;51.670;7.788;2023-07-28T00:47:34;16.90;99.90
11009;DHT22;5557;51.670;7.788;2023-07-28T00:50:02;16.90;99.90
11009;DHT22;5557;51.670;7.788;2023-07-28T00:52:30;16.80;99.90
11009;DHT22;5557;51.670;7.788;2023-07-28T00:54:57;16.80;99.90
11009;DHT22;5557;51.670;7.788;2023-07-28T00:57:24;16.90;99.90
11009;DHT22;5557;51.670;7.788;2023-07-28T00:59:51;16.80;99.90
11009;DHT22;5557;51.670;7.788;2023-07-28T01:02:19;16.90;99.90
11009;DHT22;5557;51.670;7.788;2023-07-28T01:04:48;16.80;99.90
11009;DHT22;5557;51.670;7.788;2023-07-28T01:09:55;16.90;99.90
11009;DHT22;5557;51.670;7.788;2023-07-28T01:12:24;16.80;99.90
11009;DHT22;5557;51.670;7.788;2023-07-28T01:14:51;16.90;99.90
11009;DHT22;5557;51.670;7.788;2023-07-28T01:17:18;16.90;99.90
11009;DHT22;5557;51.670;7.788;2023-07-28T01:19:46;16.90;99.90
11009;DHT22;5557;51.670;7.788;2023-07-28T01:28:09;16.90;99.90
11009;DHT22;5557;51.670;7.788;2023-07-28T01:30:36;16.90;99.90
11009;DHT22;5557;51.670;7.788;2023-07-28T01:33:06;16.90;99.90
11009;DHT22;5557;51.670;7.788;2023-07-28T01:35:38;16.90;99.90
11009;DHT22;5557;51.670;7.788;2023-07-28T01:38:05;16.90;99.90
11009;DHT22;5557;51.670;7.788;2023-07-28T01:40:32;16.90;99.90
11009;DHT22;5557;51.670;7.788;2023-07-28T01:42:59;16.90;99.90
11009;DHT22;5557;51.670;7.788;2023-07-28T01:45:26;16.90;99.90
11009;DHT22;5557;51.670;7.788;2023-07-28T01:47:53;16.90;99.90
11009;DHT22;5557;51.670;7.788;2023-07-28T01:50:20;16.90;99.90
11009;DHT22;5557;51.670;7.788;2023-07-28T01:52:47;16.90;99.90
11009;DHT22;5557;51.670;7.788;2023-07-28T01:55:14;16.90;99.90
11009;DHT22;5557;51.670;7.788;2023-07-28T01:57:50;16.90;99.90
11009;DHT22;5557;51.670;7.788;2023-07-28T02:00:19;16.90;99.90
11009;DHT22;5557;51.670;7.788;2023-07-28T02:02:47;16.90;99.90
11009;DHT22;5557;51.670;7.788;2023-07-28T02:05:14;16.90;99.90
11009;DHT22;5557;51.670;7.788;2023-07-28T02:07:41;16.90;99.90
11009;DHT22;5557;51.670;7.788;2023-07-28T02:10:09;16.90;99.90
11009;DHT22;5557;51.670;7.788;2023-07-28T02:12:37;16.90;99.90
11009;DHT22;5557;51.670;7.788;2023-07-28T02:15:08;16.90;99.90
11009;DHT22;5557;51.670;7.788;2023-07-28T02:17:35;16.90;99.90
11009;DHT22;5557;51.670;7.788;2023-07-28T02:20:02;16.90;99.90
11009;DHT22;5557;51.670;7.788;2023-07-28T02:22:30;16.90;99.90
11009;DHT22;5557;51.670;7.788;2023-07-28T02:24:57;16.90;99.90
11009;DHT22;5557;51.670;7.788;2023-07-28T02:27:28;16.90;99.90
11009;DHT22;5557;51.670;7.788;2023-07-28T02:29:55;16.90;99.90
11009;DHT22;5557;51.670;7.788;2023-07-28T02:32:23;16.90;99.90
11009;DHT22;5557;51.670;7.788;2023-07-28T02:34:50;16.90;99.90
11009;DHT22;5557;51.670;7.788;2023-07-28T02:37:17;16.90;99.90
11009;DHT22;5557;51.670;7.788;2023-07-28T02:39:44;16.80;99.90
11009;DHT22;5557;51.670;7.788;2023-07-28T02:42:12;16.80;99.90
11009;DHT22;5557;51.670;7.788;2023-07-28T02:44:39;16.90;99.90
11009;DHT22;5557;51.670;7.788;2023-07-28T02:47:06;16.80;99.90
11009;DHT22;5557;51.670;7.788;2023-07-28T02:49:33;16.90;99.90
11009;DHT22;5557;51.670;7.788;2023-07-28T02:52:00;16.80;99.90
11009;DHT22;5557;51.670;7.788;2023-07-28T02:54:29;16.80;99.90
11009;DHT22;5557;51.670;7.788;2023-07-28T02:56:56;16.80;99.90
11009;DHT22;5557;51.670;7.788;2023-07-28T02:59:23;16.80;99.90
11009;DHT22;5557;51.670;7.788;2023-07-28T03:01:50;16.80;99.90
11009;DHT22;5557;51.670;7.788;2023-07-28T03:04:20;16.80;99.90
11009;DHT22;5557;51.670;7.788;2023-07-28T03:06:47;16.90;99.90
11009;DHT22;5557;51.670;7.788;2023-07-28T03:09:14;16.80;99.90
11009;DHT22;5557;51.670;7.788;2023-07-28T03:11:44;16.80;99.90
11009;DHT22;5557;51.670;7.788;2023-07-28T03:14:11;16.80;99.90
11009;DHT22;5557;51.670;7.788;2023-07-28T03:16:41;16.90;99.90
11009;DHT22;5557;51.670;7.788;2023-07-28T03:19:08;16.80;99.90
11009;DHT22;5557;51.670;7.788;2023-07-28T03:21:35;16.90;99.90
11009;DHT22;5557;51.670;7.788;2023-07-28T03:24:05;16.90;99.90
11009;DHT22;5557;51.670;7.788;2023-07-28T03:26:32;16.90;99.90
11009;DHT22;5557;51.670;7.788;2023-07-28T03:29:00;16.90;99.90
11009;DHT22;5557;51.670;7.788;2023-07-28T03:31:28;16.90;99.90
11009;DHT22;5557;51.670;7.788;2023-07-28T03:33:56;16.90;99.90
11009;DHT22;5557;51.670;7.788;2023-07-28T03:36:23;16.90;99.90
11009;DHT22;5557;51.670;7.788;2023-07-28T03:38:50;16.90;99.90
11009;DHT22;5557;51.670;7.788;2023-07-28T03:41:17;16.90;99.90
11009;DHT22;5557;51.670;7.788;2023-07-28T03:43:45;16.90;99.90
11009;DHT22;5557;51.670;7.788;2023-07-28T03:46:12;16.90;99.90
11009;DHT22;5557;51.670;7.788;2023-07-28T03:48:39;16.90;99.90
11009;DHT22;5557;51.670;7.788;2023-07-28T03:51:06;16.90;99.90
11009;DHT22;5557;51.670;7.788;2023-07-28T03:53:33;16.90;99.90
11009;DHT22;5557;51.670;7.788;2023-07-28T03:56:03;16.90;99.90
11009;DHT22;5557;51.670;7.788;2023-07-28T03:58:30;16.90;99.90
11009;DHT22;5557;51.670;7.788;2023-07-28T04:00:57;16.90;99.90
11009;DHT22;5557;51.670;7.788;2023-07-28T04:03:24;16.90;99.90
11009;DHT22;5557;51.670;7.788;2023-07-28T04:05:51;16.90;99.90
11009;DHT22;5557;51.670;7.788;2023-07-28T04:08:18;16.90;99.90
11009;DHT22;5557;51.670;7.788;2023-07-28T04:10:45;17.00;99.90
11009;DHT22;5557;51.670;7.788;2023-07-28T04:13:12;17.00;99.90
11009;DHT22;5557;51.670;7.788;2023-07-28T04:15:39;17.00;99.90
11009;DHT22;5557;51.670;7.788;2023-07-28T04:18:07;17.00;99.90
11009;DHT22;5557;51.670;7.788;2023-07-28T04:20:34;17.00;99.90
11009;DHT22;5557;51.670;7.788;2023-07-28T04:23:00;17.00;99.90
11009;DHT22;5557;51.670;7.788;2023-07-28T04:25:27;17.00;99.90
11009;DHT22;5557;51.670;7.788;2023-07-28T04:27:54;17.00;99.90
11009;DHT22;5557;51.670;7.788;2023-07-28T04:30:23;17.00;99.90
11009;DHT22;5557;51.670;7.788;2023-07-28T04:32:53;17.10;99.90
11009;DHT22;5557;51.670;7.788;2023-07-28T04:35:21;17.10;99.90
11009;DHT22;5557;51.670;7.788;2023-07-28T04:37:48;17.10;99.90
11009;DHT22;5557;51.670;7.788;2023-07-28T04:40:15;17.10;99.90
11009;DHT22;5557;51.670;7.788;2023-07-28T04:42:43;17.10;99.90
11009;DHT22;5557;51.670;7.788;2023-07-28T04:45:10;17.20;99.90
11009;DHT22;5557;51.670;7.788;2023-07-28T04:47:37;17.20;99.90
11009;DHT22;5557;51.670;7.788;2023-07-28T04:50:04;17.20;99.90
11009;DHT22;5557;51.670;7.788;2023-07-28T04:52:31;17.30;99.90
11009;DHT22;5557;51.670;7.788;2023-07-28T04:54:58;17.30;99.90
11009;DHT22;5557;51.670;7.788;2023-07-28T04:57:25;17.30;99.90
11009;DHT22;5557;51.670;7.788;2023-07-28T04:59:52;17.40;99.90
11009;DHT22;5557;51.670;7.788;2023-07-28T05:02:19;17.40;99.90
11009;DHT22;5557;51.670;7.788;2023-07-28T05:04:46;17.40;99.90
11009;DHT22;5557;51.670;7.788;2023-07-28T05:07:13;17.50;99.90
11009;DHT22;5557;51.670;7.788;2023-07-28T05:09:40;17.50;99.90
11009;DHT22;5557;51.670;7.788;2023-07-28T05:12:08;17.50;99.90
11009;DHT22;5557;51.670;7.788;2023-07-28T05:14:35;17.50;99.90
11009;DHT22;5557;51.670;7.788;2023-07-28T05:17:02;17.60;99.90
11009;DHT22;5557;51.670;7.788;2023-07-28T05:19:29;17.60;99.90
11009;DHT22;5557;51.670;7.788;2023-07-28T05:21:56;17.60;99.90
11009;DHT22;5557;51.670;7.788;2023-07-28T05:24:23;17.60;99.90
11009;DHT22;5557;51.670;7.788;2023-07-28T05:26:50;17.70;99.90
11009;DHT22;5557;51.670;7.788;2023-07-28T05:29:17;17.70;99.90
11009;DHT22;5557;51.670;7.788;2023-07-28T05:31:45;17.70;99.90
11009;DHT22;5557;51.670;7.788;2023-07-28T05:34:12;17.80;99.90
11009;DHT22;5557;51.670;7.788;2023-07-28T05:36:40;17.80;99.90
11009;DHT22;5557;51.670;7.788;2023-07-28T05:39:07;17.90;99.90
11009;DHT22;5557;51.670;7.788;2023-07-28T05:41:34;18.00;99.90
11009;DHT22;5557;51.670;7.788;2023-07-28T05:44:01;18.10;99.90
11009;DHT22;5557;51.670;7.788;2023-07-28T05:46:29;18.20;99.90
11009;DHT22;5557;51.670;7.788;2023-07-28T05:48:56;18.20;99.90
11009;DHT22;5557;51.670;7.788;2023-07-28T05:51:23;18.20;99.90
11009;DHT22;5557;51.670;7.788;2023-07-28T05:53:50;18.20;99.90
11009;DHT22;5557;51.670;7.788;2023-07-28T05:56:17;18.20;99.90
11009;DHT22;5557;51.670;7.788;2023-07-28T05:58:47;18.20;99.90
11009;DHT22;5557;51.670;7.788;2023-07-28T06:01:15;18.20;99.90
11009;DHT22;5557;51.670;7.788;2023-07-28T06:03:42;18.30;99.90
11009;DHT22;5557;51.670;7.788;2023-07-28T06:06:12;18.30;99.90
11009;DHT22;5557;51.670;7.788;2023-07-28T06:08:39;18.30;99.90
11009;DHT22;5557;51.670;7.788;2023-07-28T06:11:06;18.30;99.90
11009;DHT22;5557;51.670;7.788;2023-07-28T06:13:33;18.40;99.90
11009;DHT22;5557;51.670;7.788;2023-07-28T06:16:01;18.40;99.90
11009;DHT22;5557;51.670;7.788;2023-07-28T06:18:28;18.40;99.90
11009;DHT22;5557;51.670;7.788;2023-07-28T06:20:55;18.40;99.90
11009;DHT22;5557;51.670;7.788;2023-07-28T06:23:22;18.40;99.90
11009;DHT22;5557;51.670;7.788;2023-07-28T06:25:50;18.50;99.90
11009;DHT22;5557;51.670;7.788;2023-07-28T06:28:17;18.50;99.90
11009;DHT22;5557;51.670;7.788;2023-07-28T06:30:56;18.70;99.90
11009;DHT22;5557;51.670;7.788;2023-07-28T06:33:25;18.80;99.90
11009;DHT22;5557;51.670;7.788;2023-07-28T06:35:52;18.90;99.90
11009;DHT22;5557;51.670;7.788;2023-07-28T06:38:19;18.80;99.90
11009;DHT22;5557;51.670;7.788;2023-07-28T06:40:46;18.80;99.90
11009;DHT22;5557;51.670;7.788;2023-07-28T06:43:13;18.80;99.90
11009;DHT22;5557;51.670;7.788;2023-07-28T06:45:40;18.80;99.90
11009;DHT22;5557;51.670;7.788;2023-07-28T06:48:07;18.80;99.90
11009;DHT22;5557;51.670;7.788;2023-07-28T06:50:35;18.80;99.90
11009;DHT22;5557;51.670;7.788;2023-07-28T06:53:02;18.70;99.90
11009;DHT22;5557;51.670;7.788;2023-07-28T06:55:29;18.70;99.90
11009;DHT22;5557;51.670;7.788;2023-07-28T06:57:56;18.70;99.90
11009;DHT22;5557;51.670;7.788;2023-07-28T07:00:23;18.80;99.90
11009;DHT22;5557;51.670;7.788;2023-07-28T07:02:50;18.80;99.90
11009;DHT22;5557;51.670;7.788;2023-07-28T07:05:17;18.90;99.90
11009;DHT22;5557;51.670;7.788;2023-07-28T07:07:44;19.00;99.90
11009;DHT22;5557;51.670;7.788;2023-07-28T07:10:11;19.00;99.90
11009;DHT22;5557;51.670;7.788;2023-07-28T07:12:38;19.00;99.90
11009;DHT22;5557;51.670;7.788;2023-07-28T07:15:06;19.10;99.90
11009;DHT22;5557;51.670;7.788;2023-07-28T07:17:33;19.10;99.90
11009;DHT22;5557;51.670;7.788;2023-07-28T07:20:00;19.00;99.90
11009;DHT22;5557;51.670;7.788;2023-07-28T07:22:27;19.10;99.90
11009;DHT22;5557;51.670;7.788;2023-07-28T07:24:55;19.10;99.90
11009;DHT22;5557;51.670;7.788;2023-07-28T07:27:25;19.10;99.90
11009;DHT22;5557;51.670;7.788;2023-07-28T07:29:52;19.20;99.90
11009;DHT22;5557;51.670;7.788;2023-07-28T07:32:19;19.10;99.90
11009;DHT22;5557;51.670;7.788;2023-07-28T07:34:47;19.10;99.90
11009;DHT22;5557;51.670;7.788;2023-07-28T07:37:14;19.20;99.90
11009;DHT22;5557;51.670;7.788;2023-07-28T07:39:41;19.20;99.90
11009;DHT22;5557;51.670;7.788;2023-07-28T07:42:10;19.40;99.90
11009;DHT22;5557;51.670;7.788;2023-07-28T07:44:41;19.50;99.90
11009;DHT22;5557;51.670;7.788;2023-07-28T07:47:15;19.70;99.90
11009;DHT22;5557;51.670;7.788;2023-07-28T07:49:42;19.80;99.90
11009;DHT22;5557;51.670;7.788;2023-07-28T07:52:10;20.00;99.90
11009;DHT22;5557;51.670;7.788;2023-07-28T07:54:37;20.10;99.90
11009;DHT22;5557;51.670;7.788;2023-07-28T07:57:05;20.10;99.90
11009;DHT22;5557;51.670;7.788;2023-07-28T07:59:32;20.10;99.90
11009;DHT22;5557;51.670;7.788;2023-07-28T08:02:02;20.10;99.90
11009;DHT22;5557;51.670;7.788;2023-07-28T08:04:30;20.20;99.90
11009;DHT22;5557;51.670;7.788;2023-07-28T08:06:58;20.20;99.90
11009;DHT22;5557;51.670;7.788;2023-07-28T08:09:26;20.10;99.90
11009;DHT22;5557;51.670;7.788;2023-07-28T08:11:54;20.20;99.90
11009;DHT22;5557;51.670;7.788;2023-07-28T08:14:21;20.20;99.90
11009;DHT22;5557;51.670;7.788;2023-07-28T08:16:48;20.20;99.90
11009;DHT22;5557;51.670;7.788;2023-07-28T08:19:15;20.30;99.90
11009;DHT22;5557;51.670;7.788;2023-07-28T08:21:42;20.50;99.90
11009;DHT22;5557;51.670;7.788;2023-07-28T08:24:09;20.50;99.10
11009;DHT22;5557;51.670;7.788;2023-07-28T08:26:37;20.60;96.30
11009;DHT22;5557;51.670;7.788;2023-07-28T08:29:05;20.70;94.40
11009;DHT22;5557;51.670;7.788;2023-07-28T08:31:32;20.90;91.70
11009;DHT22;5557;51.670;7.788;2023-07-28T08:34:00;21.00;89.10
11009;DHT22;5557;51.670;7.788;2023-07-28T08:36:27;21.00;85.10
11009;DHT22;5557;51.670;7.788;2023-07-28T08:38:54;20.90;84.70
11009;DHT22;5557;51.670;7.788;2023-07-28T08:41:21;20.80;89.30
11009;DHT22;5557;51.670;7.788;2023-07-28T08:43:48;20.70;91.50
11009;DHT22;5557;51.670;7.788;2023-07-28T08:46:18;20.70;92.40
11009;DHT22;5557;51.670;7.788;2023-07-28T08:48:45;20.80;93.80
11009;DHT22;5557;51.670;7.788;2023-07-28T08:51:13;20.90;92.40
11009;DHT22;5557;51.670;7.788;2023-07-28T08:53:40;21.10;90.80
11009;DHT22;5557;51.670;7.788;2023-07-28T08:56:08;21.30;87.50
11009;DHT22;5557;51.670;7.788;2023-07-28T08:58:35;21.50;83.50
11009;DHT22;5557;51.670;7.788;2023-07-28T09:01:03;21.70;74.20
11009;DHT22;5557;51.670;7.788;2023-07-28T09:03:32;21.80;73.80
11009;DHT22;5557;51.670;7.788;2023-07-28T09:06:02;21.90;70.30
11009;DHT22;5557;51.670;7.788;2023-07-28T09:08:32;21.90;67.20
11009;DHT22;5557;51.670;7.788;2023-07-28T09:11:05;21.60;68.60
11009;DHT22;5557;51.670;7.788;2023-07-28T09:13:39;21.60;73.40
11009;DHT22;5557;51.670;7.788;2023-07-28T09:16:20;21.50;73.10
11009;DHT22;5557;51.670;7.788;2023-07-28T09:18:48;21.30;75.40
11009;DHT22;5557;51.670;7.788;2023-07-28T09:21:19;21.30;79.30
11009;DHT22;5557;51.670;7.788;2023-07-28T09:23:48;21.30;78.10
11009;DHT22;5557;51.670;7.788;2023-07-28T09:26:16;21.30;74.60
11009;DHT22;5557;51.670;7.788;2023-07-28T09:28:43;21.40;79.20
11009;DHT22;5557;51.670;7.788;2023-07-28T09:31:10;21.70;64.40
11009;DHT22;5557;51.670;7.788;2023-07-28T09:33:40;22.10;60.20
11009;DHT22;5557;51.670;7.788;2023-07-28T09:36:14;22.30;51.40
11009;DHT22;5557;51.670;7.788;2023-07-28T09:38:45;22.40;50.50
11009;DHT22;5557;51.670;7.788;2023-07-28T09:41:13;22.50;47.20
11009;DHT22;5557;51.670;7.788;2023-07-28T09:43:40;22.30;43.70
11009;DHT22;5557;51.670;7.788;2023-07-28T09:46:09;22.30;48.30
11009;DHT22;5557;51.670;7.788;2023-07-28T09:48:44;22.40;52.70
11009;DHT22;5557;51.670;7.788;2023-07-28T09:51:16;22.40;49.00
11009;DHT22;5557;51.670;7.788;2023-07-28T09:53:52;22.40;50.60
11009;DHT22;5557;51.670;7.788;2023-07-28T09:56:22;22.30;50.70
11009;DHT22;5557;51.670;7.788;2023-07-28T09:58:52;22.20;54.40
11009;DHT22;5557;51.670;7.788;2023-07-28T10:01:20;22.20;59.80
11009;DHT22;5557;51.670;7.788;2023-07-28T10:03:49;22.20;61.90
11009;DHT22;5557;51.670;7.788;2023-07-28T10:06:20;22.10;62.60
11009;DHT22;5557;51.670;7.788;2023-07-28T10:08:49;22.30;62.90
11009;DHT22;5557;51.670;7.788;2023-07-28T10:11:16;22.40;54.00
11009;DHT22;5557;51.670;7.788;2023-07-28T10:13:44;22.50;50.70
11009;DHT22;5557;51.670;7.788;2023-07-28T10:16:13;22.60;48.40
11009;DHT22;5557;51.670;7.788;2023-07-28T10:18:54;22.90;42.30
11009;DHT22;5557;51.670;7.788;2023-07-28T10:21:21;23.10;37.00
11009;DHT22;5557;51.670;7.788;2023-07-28T10:23:58;23.60;30.90
11009;DHT22;5557;51.670;7.788;2023-07-28T10:26:36;24.00;21.80
11009;DHT22;5557;51.670;7.788;2023-07-28T10:29:12;24.10;19.00
11009;DHT22;5557;51.670;7.788;2023-07-28T10:31:55;24.10;17.70
11009;DHT22;5557;51.670;7.788;2023-07-28T10:34:24;24.00;17.40
11009;DHT22;5557;51.670;7.788;2023-07-28T10:36:58;23.80;20.30
11009;DHT22;5557;51.670;7.788;2023-07-28T10:39:26;23.80;22.30
11009;DHT22;5557;51.670;7.788;2023-07-28T10:42:11;24.30;20.00
11009;DHT22;5557;51.670;7.788;2023-07-28T10:44:38;25.00;13.70
11009;DHT22;5557;51.670;7.788;2023-07-28T10:47:10;25.80;7.00
11009;DHT22;5557;51.670;7.788;2023-07-28T10:49:38;26.10;3.00
11009;DHT22;5557;51.670;7.788;2023-07-28T10:52:06;26.40;1.00
11009;DHT22;5557;51.670;7.788;2023-07-28T10:54:34;26.40;1.00
11009;DHT22;5557;51.670;7.788;2023-07-28T10:57:04;26.10;1.00
11009;DHT22;5557;51.670;7.788;2023-07-28T10:59:32;25.70;1.00
11009;DHT22;5557;51.670;7.788;2023-07-28T11:01:59;25.50;1.50
11009;DHT22;5557;51.670;7.788;2023-07-28T11:04:27;25.30;4.20
11009;DHT22;5557;51.670;7.788;2023-07-28T11:06:54;25.00;6.80
11009;DHT22;5557;51.670;7.788;2023-07-28T11:09:23;24.60;11.50
11009;DHT22;5557;51.670;7.788;2023-07-28T11:11:51;24.40;13.30
11009;DHT22;5557;51.670;7.788;2023-07-28T11:14:19;24.30;13.00
11009;DHT22;5557;51.670;7.788;2023-07-28T11:16:47;24.30;16.40
11009;DHT22;5557;51.670;7.788;2023-07-28T11:19:15;24.80;13.20
11009;DHT22;5557;51.670;7.788;2023-07-28T11:21:44;25.70;7.70
11009;DHT22;5557;51.670;7.788;2023-07-28T11:24:21;26.30;1.00
11009;DHT22;5557;51.670;7.788;2023-07-28T11:26:49;26.00;1.00
11009;DHT22;5557;51.670;7.788;2023-07-28T11:29:18;25.30;1.40
11009;DHT22;5557;51.670;7.788;2023-07-28T11:31:45;25.00;4.50
11009;DHT22;5557;51.670;7.788;2023-07-28T11:34:18;25.10;5.90
11009;DHT22;5557;51.670;7.788;2023-07-28T11:36:45;25.10;6.00
11009;DHT22;5557;51.670;7.788;2023-07-28T11:39:13;25.20;7.70
11009;DHT22;5557;51.670;7.788;2023-07-28T11:41:42;25.50;3.30
11009;DHT22;5557;51.670;7.788;2023-07-28T11:44:11;25.60;1.00
11009;DHT22;5557;51.670;7.788;2023-07-28T11:46:41;25.70;1.00
11009;DHT22;5557;51.670;7.788;2023-07-28T11:49:16;25.40;1.00
11009;DHT22;5557;51.670;7.788;2023-07-28T11:51:47;25.40;2.60
11009;DHT22;5557;51.670;7.788;2023-07-28T11:54:18;25.30;3.50
11009;DHT22;5557;51.670;7.788;2023-07-28T11:56:50;25.00;1.50
11009;DHT22;5557;51.670;7.788;2023-07-28T11:59:18;24.90;3.20
11009;DHT22;5557;51.670;7.788;2023-07-28T12:01:57;25.00;1.90
11009;DHT22;5557;51.670;7.788;2023-07-28T12:04:28;25.10;1.40
11009;DHT22;5557;51.670;7.788;2023-07-28T12:07:12;25.40;2.40
11009;DHT22;5557;51.670;7.788;2023-07-28T12:09:50;25.60;1.00
11009;DHT22;5557;51.670;7.788;2023-07-28T12:12:26;25.50;1.00
11009;DHT22;5557;51.670;7.788;2023-07-28T12:14:56;25.60;1.60
11009;DHT22;5557;51.670;7.788;2023-07-28T12:17:29;25.80;1.00
11009;DHT22;5557;51.670;7.788;2023-07-28T12:20:07;25.90;1.00
11009;DHT22;5557;51.670;7.788;2023-07-28T12:22:39;25.70;1.00
11009;DHT22;5557;51.670;7.788;2023-07-28T12:25:07;25.60;1.00
11009;DHT22;5557;51.670;7.788;2023-07-28T12:27:34;25.50;1.00
11009;DHT22;5557;51.670;7.788;2023-07-28T12:30:02;25.50;1.00
11009;DHT22;5557;51.670;7.788;2023-07-28T12:32:31;25.60;1.00
11009;DHT22;5557;51.670;7.788;2023-07-28T12:35:01;25.70;1.00
11009;DHT22;5557;51.670;7.788;2023-07-28T12:37:31;25.80;1.00
11009;DHT22;5557;51.670;7.788;2023-07-28T12:40:01;25.70;1.00
11009;DHT22;5557;51.670;7.788;2023-07-28T12:42:31;25.60;1.00
11009;DHT22;5557;51.670;7.788;2023-07-28T12:45:01;25.70;1.00
11009;DHT22;5557;51.670;7.788;2023-07-28T12:47:31;25.80;1.00
11009;DHT22;5557;51.670;7.788;2023-07-28T12:50:04;25.80;1.00
11009;DHT22;5557;51.670;7.788;2023-07-28T12:52:44;26.00;1.00
11009;DHT22;5557;51.670;7.788;2023-07-28T12:55:15;25.70;1.00
11009;DHT22;5557;51.670;7.788;2023-07-28T12:57:42;25.70;1.00
11009;DHT22;5557;51.670;7.788;2023-07-28T13:00:10;25.80;1.00
11009;DHT22;5557;51.670;7.788;2023-07-28T13:02:45;25.80;1.00
11009;DHT22;5557;51.670;7.788;2023-07-28T13:05:13;25.90;1.00
11009;DHT22;5557;51.670;7.788;2023-07-28T13:07:42;25.80;1.00
11009;DHT22;5557;51.670;7.788;2023-07-28T13:10:12;25.80;1.00
11009;DHT22;5557;51.670;7.788;2023-07-28T13:12:42;25.80;1.00
11009;DHT22;5557;51.670;7.788;2023-07-28T13:15:12;25.60;1.00
11009;DHT22;5557;51.670;7.788;2023-07-28T13:17:39;25.50;1.00
11009;DHT22;5557;51.670;7.788;2023-07-28T13:20:07;25.40;1.00
11009;DHT22;5557;51.670;7.788;2023-07-28T13:22:34;25.30;1.00
11009;DHT22;5557;51.670;7.788;2023-07-28T13:25:01;25.40;1.00
11009;DHT22;5557;51.670;7.788;2023-07-28T13:27:29;25.50;1.00
11009;DHT22;5557;51.670;7.788;2023-07-28T13:29:56;25.40;1.00
11009;DHT22;5557;51.670;7.788;2023-07-28T13:32:25;25.30;1.00
11009;DHT22;5557;51.670;7.788;2023-07-28T13:34:53;25.30;1.00
11009;DHT22;5557;51.670;7.788;2023-07-28T13:37:21;25.30;1.00
11009;DHT22;5557;51.670;7.788;2023-07-28T13:39:48;25.30;1.00
11009;DHT22;5557;51.670;7.788;2023-07-28T13:42:15;25.30;1.00
11009;DHT22;5557;51.670;7.788;2023-07-28T13:44:43;25.40;1.00
11009;DHT22;5557;51.670;7.788;2023-07-28T13:47:13;25.30;1.00
11009;DHT22;5557;51.670;7.788;2023-07-28T13:49:40;25.40;1.00
11009;DHT22;5557;51.670;7.788;2023-07-28T13:52:10;25.00;1.00
11009;DHT22;5557;51.670;7.788;2023-07-28T13:54:45;24.90;1.00
11009;DHT22;5557;51.670;7.788;2023-07-28T13:57:15;25.00;1.00
11009;DHT22;5557;51.670;7.788;2023-07-28T13:59:42;25.10;1.00
11009;DHT22;5557;51.670;7.788;2023-07-28T14:02:09;25.10;1.00
11009;DHT22;5557;51.670;7.788;2023-07-28T14:04:36;25.20;1.00
11009;DHT22;5557;51.670;7.788;2023-07-28T14:07:03;25.40;1.00
11009;DHT22;5557;51.670;7.788;2023-07-28T14:09:30;25.70;1.00
11009;DHT22;5557;51.670;7.788;2023-07-28T14:11:57;25.70;1.00
11009;DHT22;5557;51.670;7.788;2023-07-28T14:14:24;25.60;1.00
11009;DHT22;5557;51.670;7.788;2023-07-28T14:16:51;25.40;1.00
11009;DHT22;5557;51.670;7.788;2023-07-28T14:19:19;25.30;1.00
11009;DHT22;5557;51.670;7.788;2023-07-28T14:21:46;25.30;1.00
11009;DHT22;5557;51.670;7.788;2023-07-28T14:24:13;25.30;1.00
11009;DHT22;5557;51.670;7.788;2023-07-28T14:26:40;25.30;1.00
11009;DHT22;5557;51.670;7.788;2023-07-28T14:29:07;25.20;1.00
11009;DHT22;5557;51.670;7.788;2023-07-28T14:31:34;25.30;1.00
11009;DHT22;5557;51.670;7.788;2023-07-28T14:34:05;25.30;1.00
11009;DHT22;5557;51.670;7.788;2023-07-28T14:36:32;25.30;1.00
11009;DHT22;5557;51.670;7.788;2023-07-28T14:39:02;25.30;1.00
11009;DHT22;5557;51.670;7.788;2023-07-28T14:41:30;25.20;1.00
11009;DHT22;5557;51.670;7.788;2023-07-28T14:43:57;25.30;1.00
11009;DHT22;5557;51.670;7.788;2023-07-28T14:46:24;25.30;1.00
11009;DHT22;5557;51.670;7.788;2023-07-28T14:48:52;25.30;1.00
11009;DHT22;5557;51.670;7.788;2023-07-28T14:51:20;25.30;1.00
11009;DHT22;5557;51.670;7.788;2023-07-28T14:53:47;25.10;1.00
11009;DHT22;5557;51.670;7.788;2023-07-28T14:56:15;25.00;1.00
11009;DHT22;5557;51.670;7.788;2023-07-28T14:58:43;25.00;1.00
11009;DHT22;5557;51.670;7.788;2023-07-28T15:01:11;25.20;1.00
11009;DHT22;5557;51.670;7.788;2023-07-28T15:03:38;25.20;1.00
11009;DHT22;5557;51.670;7.788;2023-07-28T15:06:10;25.30;1.00
11009;DHT22;5557;51.670;7.788;2023-07-28T15:08:49;25.40;1.00
11009;DHT22;5557;51.670;7.788;2023-07-28T15:11:16;25.30;1.00
11009;DHT22;5557;51.670;7.788;2023-07-28T15:13:44;25.20;1.00
11009;DHT22;5557;51.670;7.788;2023-07-28T15:16:11;25.30;1.00
11009;DHT22;5557;51.670;7.788;2023-07-28T15:18:40;25.40;1.00
11009;DHT22;5557;51.670;7.788;2023-07-28T15:21:11;25.50;1.00
11009;DHT22;5557;51.670;7.788;2023-07-28T15:23:38;25.40;1.00
11009;DHT22;5557;51.670;7.788;2023-07-28T15:26:05;25.20;1.00
11009;DHT22;5557;51.670;7.788;2023-07-28T15:28:32;25.10;1.00
11009;DHT22;5557;51.670;7.788;2023-07-28T15:30:59;25.00;1.00
11009;DHT22;5557;51.670;7.788;2023-07-28T15:33:27;25.00;1.00
11009;DHT22;5557;51.670;7.788;2023-07-28T15:35:57;25.00;1.00
11009;DHT22;5557;51.670;7.788;2023-07-28T15:38:24;24.90;1.00
11009;DHT22;5557;51.670;7.788;2023-07-28T15:40:51;24.90;1.00
11009;DHT22;5557;51.670;7.788;2023-07-28T15:43:24;25.00;1.00
11009;DHT22;5557;51.670;7.788;2023-07-28T15:45:51;25.00;1.00
11009;DHT22;5557;51.670;7.788;2023-07-28T15:48:21;25.00;1.00
11009;DHT22;5557;51.670;7.788;2023-07-28T15:50:48;24.80;1.00
11009;DHT22;5557;51.670;7.788;2023-07-28T15:53:15;24.80;1.00
11009;DHT22;5557;51.670;7.788;2023-07-28T15:55:42;24.80;1.00
11009;DHT22;5557;51.670;7.788;2023-07-28T15:58:10;25.00;1.00
11009;DHT22;5557;51.670;7.788;2023-07-28T16:00:37;25.10;1.00
11009;DHT22;5557;51.670;7.788;2023-07-28T16:03:04;25.10;1.00
11009;DHT22;5557;51.670;7.788;2023-07-28T16:05:31;24.90;1.00